Bismarck, ND (58503)

12:57 PM CDT on July 28, 2014 (GMT -0500)
Rural North Bismarck, Harvest Grove Subdivsion (KNDBISMA2) Elev 1900 ft | 46.90 °N, 100.78 °W | Change Station

Current weather conditions updated 15 seconds ago

Scattered Clouds
Scattered Clouds
69.5 °F
Feels Like 69.5 °F
N
6.0
Wind Variable Wind from North
Gusts 12.0 mph

Today is forecast to be Warmer than yesterday.

Today
High -- | Low -- °F
--% Chance of Precip.
Yesterday
High -- | Low -- °F
Precip. -- in
6:18 AM 9:20 PM
Waxing Crescent, 3% visible
Pressure 30.34 in
Visibility 10.0 miles
Clouds Scattered Clouds 4200 ft
Dew Point 53 °F
Humidity 56%
Rainfall 0.00 in
Snow Depth Not available.
UV 4.8 out of 12
Pollen 7.00 out of 12
Air Quality Not available.
Flu Activity Not available.
METAR KBIS 281652Z 26005KT 10SM SCT042 20/11 A3033 RMK AO2 SLP273 T02000111

More Conditions Fewer Conditions

Pressure 30.34 in
Visibility 10.0 miles
Clouds Scattered Clouds 4200 ft
Dew Point 53 °F
Humidity 56%
Rainfall 0.00 in
Snow Depth Not available.
UV 4.8 out of 12
Pollen 7.00 out of 12
Air Quality Not available.
Flu Activity Not available.
METAR KBIS 281652Z 26005KT 10SM SCT042 20/11 A3033 RMK AO2 SLP273 T02000111

More Conditions Fewer Conditions

10-Day Weather Forecast

Almanac

Astronomy

Jul. 28, 2014 Rise Set
Actual Time 6:18 AM CDT 9:20 PM CDT
Civil Twilight 5:42 AM CDT 9:56 PM CDT
Nautical Twilight 4:55 AM CDT 10:42 PM CDT
Astronomical Twilight 3:59 AM CDT 11:38 PM CDT
Moon 8:11 AM CDT 9:50 PM CDT
Length of Visible Light 16h 13m
Length of Day
15h 02m
Tomorrow will be 2m 28s shorter.
Waxing Crescent, 3% of the Moon is Illuminated
Today
Waxing Crescent
Aug 3
First Quarter
Aug 10
Full
Aug 17
Last Quarter
Aug 25
New

Today's Extremes

State Highs State Lows

Community

WunderPhotos

Upload Photos

1,738,425 photos uploaded!

Nearby

Snow Depth

Station Depth Elevation
No new snow has been reported.

Earthquake Activity

City Distance Mag. Time & Date
No recent earthquake activity has been reported nearby.
Minimum magnitude displayed is 2.5.

Coastal Water Temperatures

Place Temperature
No Stations Reporting

Nearby Weather Stations

Station Location Temp. Heat Index Dew Point Humidity Wind Precip. Elev Updated Type
Centerville Lane, Bismarck, ND 72.4 °F 77 °F 51 °F 48% NNE  at  2.1 mph 0.00 in / hr 1811 ft 12:57 PM CDT Rapid Fire
Bismarck, ND 71.0 °F 77 °F 54 °F 55% North  at  3.0 mph 0.00 in / hr 1867 ft 12:55 PM CDT Normal
Rural North Bismarck, Harvest Grove Subd, Bismarck, ND 69.5 °F - 53 °F 56% North  at  6.0 mph 0.00 in / hr 1900 ft 12:57 PM CDT Rapid Fire
Highland Acres, Bismarck, ND 76.6 °F 78 °F 53 °F 44% WNW  at  0.0 mph - / hr 1713 ft 12:45 PM CDT Normal
HADS MISSOURI RIVER AT BISMARCK (WATE ND, Bismarck, ND 67 °F - - - North  at  - 0.00 in / hr 1618 ft 12:15 PM CDT MADIS
Lincoln, Lincoln, ND 72.3 °F 77 °F 55 °F 54% WNW  at  0.0 mph - / hr 1670 ft 12:57 PM CDT Normal

Show More Stations Show Fewer Stations